createdAt,value
2018-05-27T00:04:37.055Z,15.57
2018-05-27T00:09:39.637Z,17.50
2018-05-27T00:14:42.230Z,16.20
2018-05-27T00:19:45.540Z,15.13
2018-05-27T00:24:48.154Z,15.52
2018-05-27T00:29:50.748Z,15.63
2018-05-27T00:34:53.262Z,15.52
2018-05-27T00:39:55.847Z,15.02
2018-05-27T00:44:58.407Z,13.80
2018-05-27T00:50:01.732Z,14.48
2018-05-27T00:55:04.351Z,15.50
2018-05-27T01:00:06.896Z,15.68
2018-05-27T01:05:10.222Z,14.00
2018-05-27T01:10:13.528Z,16.20
2018-05-27T01:15:16.872Z,13.90
2018-05-27T01:20:19.477Z,15.25
2018-05-27T01:25:22.116Z,15.40
2018-05-27T01:30:25.448Z,16.83
2018-05-27T01:35:31.532Z,14.80
2018-05-27T01:40:34.060Z,13.30
2018-05-27T01:45:36.596Z,16.12
2018-05-27T01:50:41.012Z,14.97
2018-05-27T01:55:43.621Z,16.17
2018-05-27T02:00:46.200Z,14.82
2018-05-27T02:05:48.792Z,14.60
2018-05-27T02:10:51.356Z,16.20
2018-05-27T02:15:53.901Z,14.70
2018-05-27T02:20:56.507Z,16.40
2018-05-27T02:25:59.813Z,15.93
2018-05-27T02:31:03.168Z,14.40
2018-05-27T02:36:05.763Z,13.90
2018-05-27T02:41:08.307Z,15.90
2018-05-27T02:46:11.607Z,15.90
2018-05-27T02:51:14.149Z,14.27
2018-05-27T02:56:19.575Z,14.02
2018-05-27T03:01:22.854Z,15.10
2018-05-27T03:06:25.368Z,13.55
2018-05-27T03:11:28.253Z,12.55
2018-05-27T03:16:30.798Z,12.30
2018-05-27T03:21:33.276Z,12.57
2018-05-27T03:26:36.555Z,16.08
2018-05-27T03:31:39.059Z,13.55
2018-05-27T03:36:41.579Z,13.70
2018-05-27T03:41:44.852Z,12.90
2018-05-27T03:46:47.364Z,13.10
2018-05-27T03:51:50.664Z,12.80
2018-05-27T03:56:53.201Z,12.93
2018-05-27T04:01:55.720Z,12.80
2018-05-27T04:07:10.146Z,13.18
2018-05-27T04:12:13.446Z,12.00
2018-05-27T04:17:15.981Z,12.70
2018-05-27T04:22:18.530Z,13.75
2018-05-27T04:27:21.079Z,11.63
2018-05-27T04:32:23.602Z,12.27
2018-05-27T04:37:26.148Z,11.40
2018-05-27T04:42:28.699Z,11.90
2018-05-27T04:47:31.213Z,14.30
2018-05-27T04:52:34.519Z,13.47
2018-05-27T04:57:37.835Z,13.05
2018-05-27T05:02:42.124Z,13.55
2018-05-27T05:07:44.652Z,12.43
2018-05-27T05:12:47.960Z,12.75
2018-05-27T05:17:50.890Z,13.00
2018-05-27T05:22:53.543Z,14.27
2018-05-27T05:27:57.028Z,14.02
2018-05-27T05:33:05.205Z,12.73
2018-05-27T05:38:07.739Z,12.80
2018-05-27T05:43:10.259Z,13.02
2018-05-27T05:48:12.792Z,12.60
2018-05-27T05:53:16.079Z,13.05
2018-05-27T05:58:18.589Z,13.80
2018-05-27T06:03:21.910Z,12.20
2018-05-27T06:08:24.455Z,12.05
2018-05-27T06:13:27.010Z,11.90
2018-05-27T06:18:29.553Z,11.43
2018-05-27T06:23:32.096Z,11.15
2018-05-27T06:28:34.641Z,10.50
2018-05-27T06:33:37.172Z,11.45
2018-05-27T06:38:40.518Z,11.53
2018-05-27T06:43:44.610Z,11.25
2018-05-27T06:48:47.256Z,10.73
2018-05-27T06:53:49.793Z,10.20
2018-05-27T06:58:54.255Z,10.20
2018-05-27T07:09:07.488Z,10.20
2018-05-27T07:14:09.992Z,10.10
2018-05-27T07:19:13.489Z,9.30
2018-05-27T07:24:15.986Z,10.52
2018-05-27T07:29:18.547Z,9.30
2018-05-27T07:34:21.078Z,9.20
2018-05-27T07:39:23.898Z,9.60
2018-05-27T07:44:27.213Z,9.13
2018-05-27T07:49:30.607Z,8.90
2018-05-27T07:54:33.124Z,9.40
2018-05-27T07:59:37.442Z,9.27
2018-05-27T08:04:39.985Z,9.10
2018-05-27T08:09:43.554Z,9.13
2018-05-27T08:14:46.857Z,9.77
2018-05-27T08:19:49.412Z,9.63
2018-05-27T08:24:51.954Z,9.70
2018-05-27T08:29:55.894Z,8.52
2018-05-27T08:34:58.441Z,8.90
2018-05-27T08:40:01.219Z,7.90
2018-05-27T08:45:03.776Z,7.65
2018-05-27T08:50:07.095Z,7.57
2018-05-27T08:55:09.645Z,8.65
2018-05-27T09:00:12.215Z,7.62
2018-05-27T09:05:14.736Z,8.05
2018-05-27T09:10:17.342Z,7.10
2018-05-27T09:15:23.195Z,7.20
2018-05-27T09:20:26.719Z,6.37
2018-05-27T09:25:29.228Z,6.60
2018-05-27T09:30:32.585Z,6.32
2018-05-27T09:35:35.137Z,5.50
2018-05-27T09:40:37.655Z,5.60
2018-05-27T09:45:40.925Z,5.50
2018-05-27T09:50:43.455Z,5.73
2018-05-27T09:55:46.599Z,5.90
2018-05-27T10:00:49.150Z,4.55
2018-05-27T10:05:51.693Z,4.43
2018-05-27T10:10:54.224Z,4.37
2018-05-27T10:15:56.712Z,4.55
2018-05-27T10:20:59.326Z,4.87
2018-05-27T10:26:02.671Z,4.32
2018-05-27T10:31:05.348Z,4.28
2018-05-27T10:36:08.834Z,4.30
2018-05-27T10:41:11.419Z,4.60
2018-05-27T10:46:14.024Z,4.83
2018-05-27T10:51:16.559Z,4.40
2018-05-27T10:56:19.075Z,5.10
2018-05-27T11:01:21.615Z,4.90
2018-05-27T11:06:24.919Z,5.00
2018-05-27T11:11:27.768Z,5.10
2018-05-27T11:16:30.334Z,4.10
2018-05-27T11:21:36.937Z,4.30
2018-05-27T11:26:39.471Z,4.60
2018-05-27T11:31:41.970Z,4.40
2018-05-27T11:36:44.509Z,5.50
2018-05-27T11:41:47.095Z,4.70
2018-05-27T11:46:52.439Z,4.57
2018-05-27T11:51:55.544Z,4.40
2018-05-27T11:56:59.062Z,4.50
2018-05-27T12:02:02.414Z,4.40
2018-05-27T12:07:05.976Z,4.73
2018-05-27T12:12:08.632Z,4.65
2018-05-27T12:17:11.213Z,4.65
2018-05-27T12:22:15.859Z,4.27
2018-05-27T12:27:18.391Z,4.20
2018-05-27T12:32:20.916Z,4.30
2018-05-27T12:37:24.204Z,4.60
2018-05-27T12:42:26.767Z,4.10
2018-05-27T12:47:29.291Z,6.35
2018-05-27T12:52:31.836Z,4.53
2018-05-27T12:57:34.398Z,4.87
2018-05-27T13:02:37.676Z,4.70
2018-05-27T13:07:40.211Z,4.75
2018-05-27T13:12:43.486Z,4.30
2018-05-27T13:17:46.009Z,4.43
2018-05-27T13:22:49.273Z,4.05
2018-05-27T13:27:51.822Z,4.60
2018-05-27T13:32:55.113Z,4.40
2018-05-27T13:37:57.656Z,4.72
2018-05-27T13:43:00.213Z,4.60
2018-05-27T13:48:02.752Z,5.50
2018-05-27T13:53:05.301Z,7.78
2018-05-27T13:58:12.204Z,4.40
2018-05-27T14:03:14.795Z,5.25
2018-05-27T14:08:17.392Z,5.40
2018-05-27T14:13:20.023Z,5.30
2018-05-27T14:18:22.696Z,5.00
2018-05-27T14:23:27.036Z,6.10
2018-05-27T14:28:29.578Z,5.07
2018-05-27T14:33:32.916Z,4.87
2018-05-27T14:38:36.219Z,5.15
2018-05-27T14:43:38.797Z,5.00
2018-05-27T14:48:41.335Z,4.70
2018-05-27T14:53:43.934Z,9.52
2018-05-27T14:58:46.513Z,4.90
2018-05-27T15:03:49.818Z,4.80
2018-05-27T15:08:52.385Z,5.00
2018-05-27T15:13:56.889Z,5.00
2018-05-27T15:18:59.506Z,5.40
2018-05-27T15:24:02.276Z,5.33
2018-05-27T15:29:04.831Z,11.17
2018-05-27T15:34:08.140Z,15.03
2018-05-27T15:39:11.548Z,5.65
2018-05-27T15:44:14.075Z,5.70
2018-05-27T15:49:16.638Z,5.70
2018-05-27T15:54:19.912Z,5.90
2018-05-27T15:59:22.454Z,6.32
2018-05-27T16:04:25.347Z,12.48
2018-05-27T16:09:29.031Z,6.50
2018-05-27T16:14:31.584Z,7.05
2018-05-27T16:19:34.882Z,8.20
2018-05-27T16:24:37.422Z,7.05
2018-05-27T16:29:39.974Z,6.93
2018-05-27T16:34:43.280Z,6.80
2018-05-27T16:39:48.499Z,8.23
2018-05-27T16:44:52.016Z,8.45
2018-05-27T16:49:54.578Z,7.00
2018-05-27T16:54:57.112Z,8.05
2018-05-27T16:59:59.688Z,9.45
2018-05-27T17:05:02.204Z,8.45
2018-05-27T17:10:04.767Z,7.50
2018-05-27T17:15:07.331Z,7.20
2018-05-27T17:20:09.898Z,7.00
2018-05-27T17:25:12.417Z,7.15
2018-05-27T17:30:15.688Z,7.47
2018-05-27T17:35:18.251Z,7.18
2018-05-27T17:40:20.978Z,7.72
2018-05-27T17:45:23.514Z,7.20
2018-05-27T17:50:26.830Z,7.80
2018-05-27T17:55:29.379Z,7.32
2018-05-27T18:00:31.948Z,8.00
2018-05-27T18:05:36.099Z,10.47
2018-05-27T18:10:39.637Z,6.93
2018-05-27T18:15:42.199Z,6.60
2018-05-27T18:20:44.760Z,7.40
2018-05-27T18:25:47.351Z,6.90
2018-05-27T18:30:49.893Z,7.80
2018-05-27T18:35:53.410Z,6.80
2018-05-27T18:40:58.645Z,7.18
2018-05-27T18:46:03.575Z,6.82
2018-05-27T18:51:07.675Z,6.50
2018-05-27T18:56:11.090Z,7.30
2018-05-27T19:01:14.871Z,8.00
2018-05-27T19:06:17.426Z,8.50
2018-05-27T19:11:20.077Z,10.25
2018-05-27T19:16:23.087Z,9.60
2018-05-27T19:21:25.652Z,8.40
2018-05-27T19:26:29.408Z,10.18
2018-05-27T19:31:32.074Z,10.13
2018-05-27T19:36:34.807Z,8.43
2018-05-27T19:41:37.402Z,9.50
2018-05-27T19:46:40.210Z,9.30
2018-05-27T19:51:42.945Z,9.10
2018-05-27T19:56:45.725Z,9.23
2018-05-27T20:01:48.320Z,10.70
2018-05-27T20:06:51.645Z,10.33
2018-05-27T20:11:54.235Z,10.70
2018-05-27T20:16:56.846Z,9.73
2018-05-27T20:22:00.353Z,10.00
2018-05-27T20:27:03.863Z,10.10
2018-05-27T20:32:07.956Z,8.90
2018-05-27T20:37:13.819Z,9.43
2018-05-27T20:42:17.684Z,9.03
2018-05-27T20:47:21.067Z,9.30
2018-05-27T20:52:25.314Z,10.03
2018-05-27T20:57:28.918Z,9.63
2018-05-27T21:02:33.458Z,23.38
2018-05-27T21:07:35.983Z,10.83
2018-05-27T21:12:39.085Z,10.50
2018-05-27T21:17:41.736Z,10.73
2018-05-27T21:22:44.315Z,10.50
2018-05-27T21:27:46.898Z,14.25
2018-05-27T21:32:49.468Z,11.65
2018-05-27T21:37:54.043Z,11.80
2018-05-27T21:42:57.554Z,11.83
2018-05-27T21:48:03.997Z,12.63
2018-05-27T21:53:07.353Z,11.45
2018-05-27T21:58:11.660Z,10.80
2018-05-27T22:03:14.300Z,10.30
2018-05-27T22:08:17.808Z,10.93
2018-05-27T22:13:20.529Z,10.40
2018-05-27T22:18:23.867Z,10.10
2018-05-27T22:23:29.959Z,10.00
2018-05-27T22:28:35.605Z,10.95
2018-05-27T22:33:38.285Z,10.77
2018-05-27T22:38:41.657Z,9.93
2018-05-27T22:43:44.189Z,11.83
2018-05-27T22:48:46.728Z,11.80
2018-05-27T22:53:56.110Z,10.20
2018-05-27T22:58:59.156Z,10.90
2018-05-27T23:04:02.700Z,11.35
2018-05-27T23:09:06.156Z,10.65
2018-05-27T23:14:08.684Z,11.10
2018-05-27T23:19:11.960Z,10.50
2018-05-27T23:24:15.699Z,10.45
2018-05-27T23:29:19.220Z,10.23
2018-05-27T23:34:25.351Z,10.63
2018-05-27T23:39:27.902Z,9.80
2018-05-27T23:44:31.181Z,11.32
2018-05-27T23:49:33.701Z,10.18
2018-05-27T23:54:36.202Z,9.63
2018-05-27T23:59:38.765Z,9.80
